地図

経路データ

SID SEASON NUMBER BASIN SUBBASIN NAME ISO_TIME NATURE LAT LON WMO_WIND WMO_PRES WMO_AGENCY TRACK_TYPE DIST2LAND LANDFALL IFLAG USA_AGENCY USA_ATCF_ID USA_LAT USA_LON USA_RECORD USA_STATUS USA_WIND USA_PRES USA_SSHS USA_R34_NE USA_R34_SE USA_R34_SW USA_R34_NW USA_R50_NE USA_R50_SE USA_R50_SW USA_R50_NW USA_R64_NE USA_R64_SE USA_R64_SW USA_R64_NW USA_POCI USA_ROCI USA_RMW USA_EYE TOKYO_LAT TOKYO_LON TOKYO_GRADE TOKYO_WIND TOKYO_PRES TOKYO_R50_DIR TOKYO_R50_LONG TOKYO_R50_SHORT TOKYO_R30_DIR TOKYO_R30_LONG TOKYO_R30_SHORT TOKYO_LAND CMA_LAT CMA_LON CMA_CAT CMA_WIND CMA_PRES HKO_LAT HKO_LON HKO_CAT HKO_WIND HKO_PRES NEWDELHI_LAT NEWDELHI_LON NEWDELHI_GRADE NEWDELHI_WIND NEWDELHI_PRES NEWDELHI_CI NEWDELHI_DP NEWDELHI_POCI REUNION_LAT REUNION_LON REUNION_TYPE REUNION_WIND REUNION_PRES REUNION_TNUM REUNION_CI REUNION_RMW REUNION_R34_NE REUNION_R34_SE REUNION_R34_SW REUNION_R34_NW REUNION_R50_NE REUNION_R50_SE REUNION_R50_SW REUNION_R50_NW REUNION_R64_NE REUNION_R64_SE REUNION_R64_SW REUNION_R64_NW BOM_LAT BOM_LON BOM_TYPE BOM_WIND BOM_PRES BOM_TNUM BOM_CI BOM_RMW BOM_R34_NE BOM_R34_SE BOM_R34_SW BOM_R34_NW BOM_R50_NE BOM_R50_SE BOM_R50_SW BOM_R50_NW BOM_R64_NE BOM_R64_SE BOM_R64_SW BOM_R64_NW BOM_ROCI BOM_POCI BOM_EYE BOM_POS_METHOD BOM_PRES_METHOD NADI_LAT NADI_LON NADI_CAT NADI_WIND NADI_PRES WELLINGTON_LAT WELLINGTON_LON WELLINGTON_WIND WELLINGTON_PRES DS824_LAT DS824_LON DS824_STAGE DS824_WIND DS824_PRES TD9636_LAT TD9636_LON TD9636_STAGE TD9636_WIND TD9636_PRES TD9635_LAT TD9635_LON TD9635_WIND TD9635_PRES TD9635_ROCI NEUMANN_LAT NEUMANN_LON NEUMANN_CLASS NEUMANN_WIND NEUMANN_PRES MLC_LAT MLC_LON MLC_CLASS MLC_WIND MLC_PRES USA_GUST BOM_GUST BOM_GUST_PER REUNION_GUST REUNION_GUST_PER USA_SEAHGT USA_SEARAD_NE USA_SEARAD_SE USA_SEARAD_SW USA_SEARAD_NW STORM_SPEED STORM_DIR
1884322N14126 1884 48 WP MM NOT_NAMED 1884-11-17 04:00:00 NR 13.5000 126.000 main 141 129 __________O___ -1 13.5000 126.000 7 13 300
1884322N14126 1884 48 WP MM NOT_NAMED 1884-11-17 06:00:00 NR 13.7115 125.619 main 129 65 __________P___ -1 13.7115 125.619 7 13 299
1884322N14126 1884 48 WP MM NOT_NAMED 1884-11-17 09:00:00 NR 14.0239 125.045 main 65 39 __________P___ -1 14.0239 125.045 7 13 299
1884322N14126 1884 48 WP MM NOT_NAMED 1884-11-17 12:00:00 NR 14.3253 124.470 main 39 35 __________P___ -1 14.3253 124.470 7 13 298
1884322N14126 1884 48 WP MM NOT_NAMED 1884-11-17 15:00:00 NR 14.6099 123.893 main 70 70 __________P___ -1 14.6099 123.893 7 13 297
1884322N14126 1884 48 WP MM NOT_NAMED 1884-11-17 16:00:00 NR 14.7000 123.700 main 89 84 __________O___ -1 14.7000 123.700 7 12 295
1884322N14126 1884 48 WP MM NOT_NAMED 1884-11-17 18:00:00 NR 14.8719 123.315 main 89 84 __________P___ -1 14.8719 123.315 7 12 294
1884322N14126 1884 48 WP MM NOT_NAMED 1884-11-17 21:00:00 NR 15.1049 122.750 main 100 78 __________P___ -1 15.1049 122.750 7 11 292
1884322N14126 1884 48 WP MM NOT_NAMED 1884-11-18 00:00:00 NR 15.3026 122.218 main 78 21 __________P___ -1 15.3026 122.218 7 10 290
1884322N14126 1884 48 WP MM NOT_NAMED 1884-11-18 03:00:00 NR 15.4584 121.742 main 21 10 __________P___ -1 15.4584 121.742 7 9 288
1884322N14126 1884 48 WP MM NOT_NAMED 1884-11-18 04:00:00 NR 15.5000 121.600 main 10 0 __________O___ -1 15.5000 121.600 3 8 287
1884322N14126 1884 48 WP MM NOT_NAMED 1884-11-18 06:00:00 NR 15.5696 121.359 main 0 0 __________P___ -1 15.5696 121.359 3 7 285
1884322N14126 1884 48 WP MM NOT_NAMED 1884-11-18 09:00:00 NR 15.6366 121.054 main 0 0 __________P___ -1 15.6366 121.054 3 6 281
1884322N14126 1884 48 WP MM NOT_NAMED 1884-11-18 12:00:00 NR 15.6729 120.782 main 0 0 __________P___ -1 15.6729 120.782 3 5 276
1884322N14126 1884 48 WP MM NOT_NAMED 1884-11-18 15:00:00 NR 15.6938 120.502 main 0 0 __________P___ -1 15.6938 120.502 3 6 274
1884322N14126 1884 48 WP MM NOT_NAMED 1884-11-18 16:00:00 NR 15.7000 120.400 main 0 0 __________O___ -1 15.7000 120.400 4 7 275
1884322N14126 1884 48 WP MM NOT_NAMED 1884-11-18 18:00:00 NR 15.7251 120.146 main 0 0 __________P___ -1 15.7251 120.146 4 8 275
1884322N14126 1884 48 WP MM NOT_NAMED 1884-11-18 21:00:00 NR 15.7565 119.739 main 15 15 __________P___ -1 15.7565 119.739 4 8 274
1884322N14126 1884 48 WP MM NOT_NAMED 1884-11-19 00:00:00 NR 15.7803 119.323 main 48 48 __________P___ -1 15.7803 119.323 4 8 273
1884322N14126 1884 48 WP MM NOT_NAMED 1884-11-19 03:00:00 NR 15.7963 118.925 main 88 88 __________P___ -1 15.7963 118.925 4 8 272
1884322N14126 1884 48 WP MM NOT_NAMED 1884-11-19 04:00:00 NR 15.8000 118.800 main 98 98 __________O___ -1 15.8000 118.800 4 7 272
1884322N14126 1884 48 WP MM NOT_NAMED 1884-11-19 06:00:00 NR 15.8106 118.582 main 119 119 __________P___ -1 15.8106 118.582 4 6 272
1884322N14126 1884 48 WP MM NOT_NAMED 1884-11-19 09:00:00 NR 15.8206 118.281 main 151 151 __________P___ -1 15.8206 118.281 4 6 271
1884322N14126 1884 48 WP MM NOT_NAMED 1884-11-19 12:00:00 NR 15.8207 117.994 main 183 183 __________P___ -1 15.8207 117.994 4 6 269
1884322N14126 1884 48 WP MM NOT_NAMED 1884-11-19 15:00:00 NR 15.8078 117.702 main 215 215 __________P___ -1 15.8078 117.702 4 6 267
1884322N14126 1884 48 WP MM NOT_NAMED 1884-11-19 16:00:00 NR 15.8000 117.600 main 225 225 __________O___ -1 15.8000 117.600 4 6 266
1884322N14126 1884 48 WP MM NOT_NAMED 1884-11-19 18:00:00 NR 15.7834 117.368 main 247 257 __________P___ -1 15.7834 117.368 4 7 265
1884322N14126 1884 48 WP MM NOT_NAMED 1884-11-19 21:00:00 NR 15.7460 117.006 main 290 290 __________P___ -1 15.7460 117.006 4 7 263
1884322N14126 1884 48 WP MM NOT_NAMED 1884-11-20 00:00:00 NR 15.6935 116.646 main 333 333 __________P___ -1 15.6935 116.646 4 7 260
1884322N14126 1884 48 WP MM NOT_NAMED 1884-11-20 03:00:00 NR 15.6259 116.306 main 366 366 __________P___ -1 15.6259 116.306 4 7 258
1884322N14126 1884 48 WP MM NOT_NAMED 1884-11-20 04:00:00 NR 15.6000 116.200 main 377 377 __________O___ -1 15.6000 116.200 4 6 255
1884322N14126 1884 48 WP MM NOT_NAMED 1884-11-20 06:00:00 NR 15.5498 116.013 main 400 400 __________P___ -1 15.5498 116.013 4 5 252
1884322N14126 1884 48 WP MM NOT_NAMED 1884-11-20 09:00:00 NR 15.4621 115.758 main 421 431 __________P___ -1 15.4621 115.758 4 5 248
1884322N14126 1884 48 WP MM NOT_NAMED 1884-11-20 12:00:00 NR 15.3597 115.520 main 454 454 __________P___ -1 15.3597 115.520 4 5 244
1884322N14126 1884 48 WP MM NOT_NAMED 1884-11-20 15:00:00 NR 15.2424 115.282 main 479 479 __________P___ -1 15.2424 115.282 4 5 243
1884322N14126 1884 48 WP MM NOT_NAMED 1884-11-20 16:00:00 NR 15.2000 115.200 main 490 490 __________O___ -1 15.2000 115.200 4 6 244
1884322N14126 1884 48 WP MM NOT_NAMED 1884-11-20 18:00:00 NR 15.1167 115.012 main 513 513 __________P___ -1 15.1167 115.012 4 6 244
1884322N14126 1884 48 WP MM NOT_NAMED 1884-11-20 21:00:00 NR 14.9793 114.723 main 547 547 __________P___ -1 14.9793 114.723 4 6 242
1884322N14126 1884 48 WP MM NOT_NAMED 1884-11-21 00:00:00 NR 14.8268 114.440 main 558 535 __________P___ -1 14.8268 114.440 4 6 239
1884322N14126 1884 48 WP MM NOT_NAMED 1884-11-21 03:00:00 NR 14.6592 114.179 main 535 523 __________P___ -1 14.6592 114.179 4 6 235
1884322N14126 1884 48 WP MM NOT_NAMED 1884-11-21 04:00:00 NR 14.6000 114.100 main 523 511 __________O___ -1 14.6000 114.100 4 6 229
1884322N14126 1884 48 WP MM NOT_NAMED 1884-11-21 06:00:00 NR 14.4779 113.963 main 511 487 __________P___ -1 14.4779 113.963 4 5 224
1884322N14126 1884 48 WP MM NOT_NAMED 1884-11-21 09:00:00 NR 14.2824 113.783 main 487 463 __________P___ -1 14.2824 113.783 4 5 220
1884322N14126 1884 48 WP MM NOT_NAMED 1884-11-21 12:00:00 NR 14.0773 113.620 main 463 447 __________P___ -1 14.0773 113.620 4 5 217
1884322N14126 1884 48 WP MM NOT_NAMED 1884-11-21 15:00:00 NR 13.8691 113.457 main 447 434 __________P___ -1 13.8691 113.457 4 5 217
1884322N14126 1884 48 WP MM NOT_NAMED 1884-11-21 16:00:00 NR 13.8000 113.400 main 434 421 __________O___ -1 13.8000 113.400 4 6 222
1884322N14126 1884 48 WP MM NOT_NAMED 1884-11-21 18:00:00 NR 13.6667 113.265 main 421 395 __________P___ -1 13.6667 113.265 4 6 225
1884322N14126 1884 48 WP MM NOT_NAMED 1884-11-21 21:00:00 NR 13.4667 113.055 main 395 360 __________P___ -1 13.4667 113.055 4 6 225
1884322N14126 1884 48 WP MM NOT_NAMED 1884-11-22 00:00:00 NR 13.2667 112.848 main 360 347 __________P___ -1 13.2667 112.848 4 6 224
1884322N14126 1884 48 WP MM NOT_NAMED 1884-11-22 03:00:00 NR 13.0667 112.658 main 347 336 __________P___ -1 13.0667 112.658 4 5 222
1884322N14126 1884 48 WP MM NOT_NAMED 1884-11-22 04:00:00 NR 13.0000 112.600 main 336 325 __________O___ -1 13.0000 112.600 4 5 218
1884322N14126 1884 48 WP MM NOT_NAMED 1884-11-22 06:00:00 NR 12.8745 112.505 main 325 314 __________P___ -1 12.8745 112.505 4 5 214
1884322N14126 1884 48 WP MM NOT_NAMED 1884-11-22 09:00:00 NR 12.6864 112.381 main 315 304 __________P___ -1 12.6864 112.381 4 5 211
1884322N14126 1884 48 WP MM NOT_NAMED 1884-11-22 12:00:00 NR 12.4902 112.266 main 304 284 __________P___ -1 12.4902 112.266 4 5 209
1884322N14126 1884 48 WP MM NOT_NAMED 1884-11-22 15:00:00 NR 12.2767 112.145 main 284 284 __________P___ -1 12.2767 112.145 4 5 209
1884322N14126 1884 48 WP MM NOT_NAMED 1884-11-22 16:00:00 NR 12.2000 112.100 main 286 277 __________O___ -1 12.2000 112.100 4 6 210
1884322N14126 1884 48 WP MM NOT_NAMED 1884-11-22 18:00:00 NR 12.0371 112.002 main 279 265 __________P___ -1 12.0371 112.002 4 6 211
1884322N14126 1884 48 WP MM NOT_NAMED 1884-11-22 21:00:00 NR 11.7726 111.836 main 265 263 __________P___ -1 11.7726 111.836 4 6 212
1884322N14126 1884 48 WP MM NOT_NAMED 1884-11-23 00:00:00 NR 11.4905 111.655 main 265 249 __________P___ -1 11.4905 111.655 4 7 212
1884322N14126 1884 48 WP MM NOT_NAMED 1884-11-23 03:00:00 NR 11.1983 111.464 main 252 241 __________P___ -1 11.1983 111.464 4 7 213
1884322N14126 1884 48 WP MM NOT_NAMED 1884-11-23 04:00:00 NR 11.1000 111.400 main 245 __________O___ -1 11.1000 111.400 4 7 214

デジタル台風データ・検索

IBTrACS Databaseについて

本データベースは、米国NOAAが公開する1842年以降の世界の熱帯低気圧のベストトラックデータアーカイブInternational Best Track Archive for Climate Stewardship (IBTrACS)を、ウェブで閲覧しやすい形式に変換したものです。

最終更新日:2021-11-26